sensor_id;sensor_type;location;lat;lon;timestamp;pressure;altitude;pressure_sealevel;temperature;humidity
71299;BME280;59083;47.974;21.722;2022-08-21T00:02:53;99744.94;;;23.36;61.74
71299;BME280;59083;47.974;21.722;2022-08-21T00:05:55;99747.44;;;23.33;62.62
71299;BME280;59083;47.974;21.722;2022-08-21T00:08:56;99744.00;;;23.22;63.30
71299;BME280;59083;47.974;21.722;2022-08-21T00:11:58;99748.91;;;23.20;62.67
71299;BME280;59083;47.974;21.722;2022-08-21T00:14:59;99747.00;;;23.21;63.19
71299;BME280;59083;47.974;21.722;2022-08-21T00:18:00;99760.03;;;23.24;63.47
71299;BME280;59083;47.974;21.722;2022-08-21T00:21:02;99748.41;;;23.13;63.62
71299;BME280;59083;47.974;21.722;2022-08-21T00:24:03;99755.03;;;23.02;65.17
71299;BME280;59083;47.974;21.722;2022-08-21T00:27:05;99752.84;;;23.04;64.92
71299;BME280;59083;47.974;21.722;2022-08-21T00:30:08;99748.00;;;23.01;65.07
71299;BME280;59083;47.974;21.722;2022-08-21T00:33:10;99744.25;;;22.92;65.85
71299;BME280;59083;47.974;21.722;2022-08-21T00:36:12;99751.34;;;22.88;66.27
71299;BME280;59083;47.974;21.722;2022-08-21T00:39:13;99757.66;;;22.83;66.44
71299;BME280;59083;47.974;21.722;2022-08-21T00:42:16;99764.00;;;22.63;68.06
71299;BME280;59083;47.974;21.722;2022-08-21T00:45:18;99755.84;;;22.63;67.91
71299;BME280;59083;47.974;21.722;2022-08-21T00:48:20;99756.47;;;22.55;67.77
71299;BME280;59083;47.974;21.722;2022-08-21T00:51:25;99738.53;;;22.54;68.24
71299;BME280;59083;47.974;21.722;2022-08-21T00:54:30;99745.59;;;22.55;68.41
71299;BME280;59083;47.974;21.722;2022-08-21T00:57:38;99752.69;;;22.46;68.90
71299;BME280;59083;47.974;21.722;2022-08-21T01:00:42;99742.41;;;22.43;69.37
71299;BME280;59083;47.974;21.722;2022-08-21T01:03:45;99731.28;;;22.40;69.36
71299;BME280;59083;47.974;21.722;2022-08-21T01:06:47;99728.31;;;22.36;69.18
71299;BME280;59083;47.974;21.722;2022-08-21T01:09:48;99737.56;;;22.35;69.55
71299;BME280;59083;47.974;21.722;2022-08-21T01:12:55;99725.91;;;22.30;69.94
71299;BME280;59083;47.974;21.722;2022-08-21T01:15:58;99729.47;;;22.25;70.03
71299;BME280;59083;47.974;21.722;2022-08-21T01:19:02;99720.28;;;22.16;70.13
71299;BME280;59083;47.974;21.722;2022-08-21T01:22:03;99718.34;;;22.21;70.55
71299;BME280;59083;47.974;21.722;2022-08-21T01:25:06;99713.75;;;22.17;70.83
71299;BME280;59083;47.974;21.722;2022-08-21T01:28:12;99714.91;;;22.06;71.10
71299;BME280;59083;47.974;21.722;2022-08-21T01:31:15;99721.41;;;22.10;71.06
71299;BME280;59083;47.974;21.722;2022-08-21T01:34:18;99723.03;;;22.06;71.10
71299;BME280;59083;47.974;21.722;2022-08-21T01:37:21;99728.78;;;21.99;71.47
71299;BME280;59083;47.974;21.722;2022-08-21T01:40:22;99718.22;;;21.98;71.33
71299;BME280;59083;47.974;21.722;2022-08-21T01:43:23;99719.28;;;22.02;71.15
71299;BME280;59083;47.974;21.722;2022-08-21T01:46:25;99717.88;;;22.04;71.02
71299;BME280;59083;47.974;21.722;2022-08-21T01:49:26;99716.84;;;22.00;71.29
71299;BME280;59083;47.974;21.722;2022-08-21T01:52:28;99713.31;;;22.00;71.35
71299;BME280;59083;47.974;21.722;2022-08-21T01:55:30;99714.97;;;21.91;71.47
71299;BME280;59083;47.974;21.722;2022-08-21T01:58:32;99711.72;;;21.83;71.67
71299;BME280;59083;47.974;21.722;2022-08-21T02:01:35;99717.16;;;21.83;71.40
71299;BME280;59083;47.974;21.722;2022-08-21T02:04:37;99724.19;;;21.84;71.59
71299;BME280;59083;47.974;21.722;2022-08-21T02:07:41;99722.03;;;21.87;71.35
71299;BME280;59083;47.974;21.722;2022-08-21T02:10:43;99716.34;;;21.83;71.29
71299;BME280;59083;47.974;21.722;2022-08-21T02:13:44;99722.03;;;21.81;71.20
71299;BME280;59083;47.974;21.722;2022-08-21T02:16:46;99724.78;;;21.71;71.71
71299;BME280;59083;47.974;21.722;2022-08-21T02:19:47;99723.69;;;21.77;71.70
71299;BME280;59083;47.974;21.722;2022-08-21T02:22:49;99728.03;;;21.78;71.54
71299;BME280;59083;47.974;21.722;2022-08-21T02:25:50;99718.00;;;21.74;71.61
71299;BME280;59083;47.974;21.722;2022-08-21T02:28:52;99714.75;;;21.72;71.50
71299;BME280;59083;47.974;21.722;2022-08-21T02:31:53;99706.63;;;21.67;71.88
71299;BME280;59083;47.974;21.722;2022-08-21T02:34:54;99706.63;;;21.67;71.92
71299;BME280;59083;47.974;21.722;2022-08-21T02:37:59;99708.00;;;21.59;72.05
71299;BME280;59083;47.974;21.722;2022-08-21T02:41:00;99703.13;;;21.61;72.38
71299;BME280;59083;47.974;21.722;2022-08-21T02:44:02;99705.28;;;21.59;72.28
71299;BME280;59083;47.974;21.722;2022-08-21T02:47:03;99706.41;;;21.58;72.23
71299;BME280;59083;47.974;21.722;2022-08-21T02:50:06;99698.28;;;21.58;72.49
71299;BME280;59083;47.974;21.722;2022-08-21T02:53:10;99692.81;;;21.63;71.96
71299;BME280;59083;47.974;21.722;2022-08-21T02:56:14;99690.13;;;21.63;71.97
71299;BME280;59083;47.974;21.722;2022-08-21T02:59:16;99687.41;;;21.63;72.05
71299;BME280;59083;47.974;21.722;2022-08-21T03:02:17;99672.75;;;21.59;72.12
71299;BME280;59083;47.974;21.722;2022-08-21T03:05:19;99673.84;;;21.63;72.14
71299;BME280;59083;47.974;21.722;2022-08-21T03:08:21;99677.62;;;21.62;72.07
71299;BME280;59083;47.974;21.722;2022-08-21T03:11:22;99680.91;;;21.64;72.04
71299;BME280;59083;47.974;21.722;2022-08-21T03:14:24;99680.91;;;21.54;72.45
71299;BME280;59083;47.974;21.722;2022-08-21T03:17:25;99686.91;;;21.51;72.56
71299;BME280;59083;47.974;21.722;2022-08-21T03:20:28;99685.03;;;21.47;72.77
71299;BME280;59083;47.974;21.722;2022-08-21T03:23:30;99693.16;;;21.41;72.73
71299;BME280;59083;47.974;21.722;2022-08-21T03:26:31;99699.38;;;21.42;73.07
71299;BME280;59083;47.974;21.722;2022-08-21T03:29:32;99696.69;;;21.37;73.13
71299;BME280;59083;47.974;21.722;2022-08-21T03:32:34;99695.87;;;21.31;73.39
71299;BME280;59083;47.974;21.722;2022-08-21T03:35:37;99694.56;;;21.19;74.51
71299;BME280;59083;47.974;21.722;2022-08-21T03:38:38;99704.28;;;21.25;73.99
71299;BME280;59083;47.974;21.722;2022-08-21T03:41:40;99708.66;;;21.21;74.65
71299;BME280;59083;47.974;21.722;2022-08-21T03:44:41;99717.84;;;21.20;74.35
71299;BME280;59083;47.974;21.722;2022-08-21T03:47:54;99727.09;;;21.24;74.68
71299;BME280;59083;47.974;21.722;2022-08-21T03:50:56;99721.38;;;21.25;74.62
71299;BME280;59083;47.974;21.722;2022-08-21T03:53:58;99721.66;;;21.29;74.39
71299;BME280;59083;47.974;21.722;2022-08-21T03:56:59;99722.47;;;21.29;74.25
71299;BME280;59083;47.974;21.722;2022-08-21T04:00:00;99726.00;;;21.35;74.55
71299;BME280;59083;47.974;21.722;2022-08-21T04:03:02;99730.88;;;21.28;74.39
71299;BME280;59083;47.974;21.722;2022-08-21T04:06:03;99733.03;;;21.26;74.73
71299;BME280;59083;47.974;21.722;2022-08-21T04:09:05;99719.50;;;21.21;74.97
71299;BME280;59083;47.974;21.722;2022-08-21T04:12:06;99737.94;;;21.29;74.75
71299;BME280;59083;47.974;21.722;2022-08-21T04:15:08;99736.28;;;21.28;75.06
71299;BME280;59083;47.974;21.722;2022-08-21T04:18:09;99733.84;;;21.26;74.89
71299;BME280;59083;47.974;21.722;2022-08-21T04:21:11;99738.19;;;21.32;74.93
71299;BME280;59083;47.974;21.722;2022-08-21T04:24:12;99734.34;;;21.43;74.30
71299;BME280;59083;47.974;21.722;2022-08-21T04:27:13;99737.34;;;21.42;74.57
71299;BME280;59083;47.974;21.722;2022-08-21T04:30:16;99740.63;;;21.34;75.03
71299;BME280;59083;47.974;21.722;2022-08-21T04:33:17;99736.28;;;21.28;75.12
71299;BME280;59083;47.974;21.722;2022-08-21T04:36:19;99736.81;;;21.25;74.91
71299;BME280;59083;47.974;21.722;2022-08-21T04:39:20;99745.78;;;21.25;75.05
71299;BME280;59083;47.974;21.722;2022-08-21T04:42:21;99755.25;;;21.33;74.86
71299;BME280;59083;47.974;21.722;2022-08-21T04:45:44;99753.38;;;21.23;75.38
71299;BME280;59083;47.974;21.722;2022-08-21T04:48:46;99756.91;;;21.19;76.00
71299;BME280;59083;47.974;21.722;2022-08-21T04:51:50;99770.47;;;21.19;76.16
71299;BME280;59083;47.974;21.722;2022-08-21T04:54:52;99773.13;;;21.14;76.53
71299;BME280;59083;47.974;21.722;2022-08-21T04:57:54;99775.34;;;21.17;76.33
71299;BME280;59083;47.974;21.722;2022-08-21T05:00:57;99772.34;;;21.28;75.76
71299;BME280;59083;47.974;21.722;2022-08-21T05:03:59;99776.41;;;21.41;75.07
71299;BME280;59083;47.974;21.722;2022-08-21T05:07:05;99777.47;;;21.50;74.58
71299;BME280;59083;47.974;21.722;2022-08-21T05:10:08;99782.31;;;21.53;74.58
71299;BME280;59083;47.974;21.722;2022-08-21T05:13:11;99779.87;;;21.62;74.58
71299;BME280;59083;47.974;21.722;2022-08-21T05:16:13;99772.25;;;21.74;74.13
71299;BME280;59083;47.974;21.722;2022-08-21T05:19:14;99779.00;;;21.81;73.77
71299;BME280;59083;47.974;21.722;2022-08-21T05:22:23;99777.91;;;21.87;73.89
71299;BME280;59083;47.974;21.722;2022-08-21T05:25:25;99779.53;;;21.99;73.38
71299;BME280;59083;47.974;21.722;2022-08-21T05:28:26;99777.38;;;21.96;73.86
71299;BME280;59083;47.974;21.722;2022-08-21T05:31:28;99783.84;;;22.05;73.29
71299;BME280;59083;47.974;21.722;2022-08-21T05:34:29;99787.91;;;22.07;73.78
71299;BME280;59083;47.974;21.722;2022-08-21T05:37:31;99794.63;;;22.25;73.18
71299;BME280;59083;47.974;21.722;2022-08-21T05:40:32;99797.31;;;22.30;73.16
71299;BME280;59083;47.974;21.722;2022-08-21T05:43:34;99794.56;;;22.35;72.37
71299;BME280;59083;47.974;21.722;2022-08-21T05:46:37;99803.00;;;22.34;72.63
71299;BME280;59083;47.974;21.722;2022-08-21T05:49:39;99804.84;;;22.48;71.81
71299;BME280;59083;47.974;21.722;2022-08-21T05:52:40;99805.91;;;22.52;71.91
71299;BME280;59083;47.974;21.722;2022-08-21T05:55:41;99808.78;;;22.71;71.12
71299;BME280;59083;47.974;21.722;2022-08-21T05:58:43;99805.13;;;22.91;70.40
71299;BME280;59083;47.974;21.722;2022-08-21T06:01:44;99796.78;;;23.16;69.50
71299;BME280;59083;47.974;21.722;2022-08-21T06:04:46;99790.56;;;23.44;68.57
71299;BME280;59083;47.974;21.722;2022-08-21T06:07:48;99785.56;;;23.85;67.11
71299;BME280;59083;47.974;21.722;2022-08-21T06:10:51;99789.38;;;24.08;66.52
71299;BME280;59083;47.974;21.722;2022-08-21T06:13:53;99783.84;;;24.56;64.61
71299;BME280;59083;47.974;21.722;2022-08-21T06:16:54;99781.63;;;24.95;63.09
71299;BME280;59083;47.974;21.722;2022-08-21T06:19:55;99778.16;;;25.08;62.82
71299;BME280;59083;47.974;21.722;2022-08-21T06:22:57;99779.09;;;25.18;62.20
71299;BME280;59083;47.974;21.722;2022-08-21T06:25:58;99778.09;;;24.76;63.57
71299;BME280;59083;47.974;21.722;2022-08-21T06:29:00;99767.72;;;24.59;64.68
71299;BME280;59083;47.974;21.722;2022-08-21T06:32:02;99778.84;;;24.82;64.15
71299;BME280;59083;47.974;21.722;2022-08-21T06:35:04;99779.47;;;25.43;61.49
71299;BME280;59083;47.974;21.722;2022-08-21T06:38:06;99783.72;;;25.49;61.34
71299;BME280;59083;47.974;21.722;2022-08-21T06:41:08;99772.34;;;26.16;59.49
71299;BME280;59083;47.974;21.722;2022-08-21T06:44:10;99770.75;;;25.87;60.14
71299;BME280;59083;47.974;21.722;2022-08-21T06:47:11;99763.78;;;25.22;62.46
71299;BME280;59083;47.974;21.722;2022-08-21T06:50:12;99759.78;;;25.14;62.64
71299;BME280;59083;47.974;21.722;2022-08-21T06:53:17;99765.19;;;25.00;62.77
71299;BME280;59083;47.974;21.722;2022-08-21T06:56:19;99756.69;;;24.88;62.98
71299;BME280;59083;47.974;21.722;2022-08-21T06:59:20;99761.16;;;24.79;63.62
71299;BME280;59083;47.974;21.722;2022-08-21T07:02:21;99759.59;;;24.73;63.76
71299;BME280;59083;47.974;21.722;2022-08-21T07:05:26;99761.59;;;24.67;63.67
71299;BME280;59083;47.974;21.722;2022-08-21T07:08:27;99758.22;;;24.57;64.47
71299;BME280;59083;47.974;21.722;2022-08-21T07:11:29;99772.22;;;24.69;64.17
71299;BME280;59083;47.974;21.722;2022-08-21T07:14:30;99766.91;;;24.59;63.99
71299;BME280;59083;47.974;21.722;2022-08-21T07:17:31;99779.00;;;24.53;64.41
71299;BME280;59083;47.974;21.722;2022-08-21T07:20:33;99777.75;;;24.64;64.12
71299;BME280;59083;47.974;21.722;2022-08-21T07:23:41;99789.28;;;24.56;63.88
71299;BME280;59083;47.974;21.722;2022-08-21T07:26:42;99788.41;;;24.42;64.39
71299;BME280;59083;47.974;21.722;2022-08-21T07:29:44;99781.88;;;24.43;64.13
71299;BME280;59083;47.974;21.722;2022-08-21T07:32:45;99776.84;;;24.50;63.89
71299;BME280;59083;47.974;21.722;2022-08-21T07:35:47;99781.19;;;24.51;64.22
71299;BME280;59083;47.974;21.722;2022-08-21T07:38:48;99786.28;;;24.76;64.07
71299;BME280;59083;47.974;21.722;2022-08-21T07:41:49;99786.69;;;24.88;63.02
71299;BME280;59083;47.974;21.722;2022-08-21T07:44:51;99784.88;;;24.97;62.40
71299;BME280;59083;47.974;21.722;2022-08-21T07:47:52;99780.37;;;24.88;62.46
71299;BME280;59083;47.974;21.722;2022-08-21T07:50:53;99778.19;;;24.71;63.20
71299;BME280;59083;47.974;21.722;2022-08-21T07:53:57;99775.88;;;24.78;63.13
71299;BME280;59083;47.974;21.722;2022-08-21T07:57:00;99786.69;;;24.88;62.06
71299;BME280;59083;47.974;21.722;2022-08-21T08:00:05;99780.69;;;24.86;61.57
71299;BME280;59083;47.974;21.722;2022-08-21T08:03:12;99774.69;;;24.84;62.02
71299;BME280;59083;47.974;21.722;2022-08-21T08:06:14;99775.31;;;24.81;61.85
71299;BME280;59083;47.974;21.722;2022-08-21T08:09:17;99782.16;;;24.79;61.89
71299;BME280;59083;47.974;21.722;2022-08-21T08:12:18;99779.72;;;24.77;62.10
71299;BME280;59083;47.974;21.722;2022-08-21T08:15:23;99781.94;;;24.75;62.37
71299;BME280;59083;47.974;21.722;2022-08-21T08:18:25;99773.41;;;24.63;62.35
71299;BME280;59083;47.974;21.722;2022-08-21T08:21:26;99777.28;;;24.57;62.62
71299;BME280;59083;47.974;21.722;2022-08-21T08:24:28;99773.09;;;24.46;62.43
71299;BME280;59083;47.974;21.722;2022-08-21T08:27:29;99778.00;;;24.44;62.67
71299;BME280;59083;47.974;21.722;2022-08-21T08:30:31;99770.97;;;24.43;62.46
71299;BME280;59083;47.974;21.722;2022-08-21T08:33:32;99775.91;;;24.41;62.63
71299;BME280;59083;47.974;21.722;2022-08-21T08:36:35;99772.63;;;24.39;62.88
71299;BME280;59083;47.974;21.722;2022-08-21T08:39:37;99777.88;;;24.35;63.29
71299;BME280;59083;47.974;21.722;2022-08-21T08:42:39;99777.66;;;24.32;64.02
71299;BME280;59083;47.974;21.722;2022-08-21T08:45:42;99788.91;;;24.25;63.94
71299;BME280;59083;47.974;21.722;2022-08-21T08:51:51;99770.94;;;24.24;63.68
71299;BME280;59083;47.974;21.722;2022-08-21T08:55:09;99777.78;;;24.21;63.68
71299;BME280;59083;47.974;21.722;2022-08-21T08:58:20;99794.13;;;24.21;63.70
71299;BME280;59083;47.974;21.722;2022-08-21T09:01:23;99805.63;;;24.13;64.97
71299;BME280;59083;47.974;21.722;2022-08-21T09:04:26;99808.06;;;23.91;65.47
71299;BME280;59083;47.974;21.722;2022-08-21T09:14:22;99803.06;;;23.45;69.03
71299;BME280;59083;47.974;21.722;2022-08-21T09:20:52;99815.63;;;23.46;69.38
71299;BME280;59083;47.974;21.722;2022-08-21T09:24:02;99821.56;;;23.48;69.56
71299;BME280;59083;47.974;21.722;2022-08-21T09:27:14;99829.19;;;23.41;70.87
71299;BME280;59083;47.974;21.722;2022-08-21T09:30:16;99833.78;;;23.17;72.79
71299;BME280;59083;47.974;21.722;2022-08-21T09:33:18;99838.25;;;22.98;74.39
71299;BME280;59083;47.974;21.722;2022-08-21T09:36:25;99833.47;;;22.80;77.04
71299;BME280;59083;47.974;21.722;2022-08-21T09:39:32;99832.97;;;22.67;78.37
71299;BME280;59083;47.974;21.722;2022-08-21T09:42:33;99839.50;;;22.61;78.96
71299;BME280;59083;47.974;21.722;2022-08-21T09:45:35;99839.53;;;22.56;78.32
71299;BME280;59083;47.974;21.722;2022-08-21T09:48:48;99849.34;;;22.52;79.88
71299;BME280;59083;47.974;21.722;2022-08-21T09:51:52;99844.50;;;22.49;81.90
71299;BME280;59083;47.974;21.722;2022-08-21T09:54:55;99837.16;;;22.45;82.90
71299;BME280;59083;47.974;21.722;2022-08-21T09:57:57;99833.13;;;22.42;82.00
71299;BME280;59083;47.974;21.722;2022-08-21T10:01:00;99833.16;;;22.32;81.60
71299;BME280;59083;47.974;21.722;2022-08-21T10:04:12;99827.72;;;22.37;83.14
71299;BME280;59083;47.974;21.722;2022-08-21T10:07:14;99826.06;;;22.41;83.14
71299;BME280;59083;47.974;21.722;2022-08-21T10:10:20;99825.47;;;22.44;82.11
71299;BME280;59083;47.974;21.722;2022-08-21T10:13:25;99836.88;;;22.46;81.94
71299;BME280;59083;47.974;21.722;2022-08-21T10:17:01;99829.00;;;22.45;82.76
71299;BME280;59083;47.974;21.722;2022-08-21T10:20:18;99826.56;;;22.48;83.92
71299;BME280;59083;47.974;21.722;2022-08-21T10:23:35;99817.63;;;22.43;83.54
71299;BME280;59083;47.974;21.722;2022-08-21T10:26:57;99815.25;;;22.31;85.44
71299;BME280;59083;47.974;21.722;2022-08-21T10:30:10;99822.03;;;22.29;86.45
71299;BME280;59083;47.974;21.722;2022-08-21T10:39:56;99820.53;;;21.97;88.40
71299;BME280;59083;47.974;21.722;2022-08-21T10:56:30;99814.28;;;21.97;88.66
71299;BME280;59083;47.974;21.722;2022-08-21T10:59:38;99808.28;;;22.00;88.79
71299;BME280;59083;47.974;21.722;2022-08-21T11:03:03;99806.12;;;21.92;88.25
71299;BME280;59083;47.974;21.722;2022-08-21T11:06:14;99796.91;;;21.93;88.25
71299;BME280;59083;47.974;21.722;2022-08-21T11:09:22;99788.47;;;21.99;88.38
71299;BME280;59083;47.974;21.722;2022-08-21T11:12:45;99786.56;;;22.10;87.83
71299;BME280;59083;47.974;21.722;2022-08-21T11:15:58;99776.19;;;22.17;88.06
71299;BME280;59083;47.974;21.722;2022-08-21T11:23:11;99777.81;;;22.18;87.49
71299;BME280;59083;47.974;21.722;2022-08-21T11:26:21;99770.47;;;22.23;88.14
71299;BME280;59083;47.974;21.722;2022-08-21T11:29:38;99772.63;;;22.32;87.62
71299;BME280;59083;47.974;21.722;2022-08-21T11:35:53;99761.47;;;22.28;86.84
71299;BME280;59083;47.974;21.722;2022-08-21T11:42:38;99748.34;;;22.45;86.67
71299;BME280;59083;47.974;21.722;2022-08-21T11:45:57;99741.72;;;22.61;85.14
71299;BME280;59083;47.974;21.722;2022-08-21T11:52:34;99746.28;;;22.76;82.82
71299;BME280;59083;47.974;21.722;2022-08-21T11:55:43;99740.66;;;22.96;82.44
71299;BME280;59083;47.974;21.722;2022-08-21T11:58:49;99731.09;;;23.04;81.67
71299;BME280;59083;47.974;21.722;2022-08-21T12:01:53;99730.25;;;23.37;81.50
71299;BME280;59083;47.974;21.722;2022-08-21T12:04:58;99722.25;;;23.51;77.54
71299;BME280;59083;47.974;21.722;2022-08-21T12:08:15;99711.41;;;23.70;77.60
71299;BME280;59083;47.974;21.722;2022-08-21T12:11:27;99707.91;;;23.88;77.05
71299;BME280;59083;47.974;21.722;2022-08-21T12:18:27;99687.47;;;24.09;75.47
71299;BME280;59083;47.974;21.722;2022-08-21T12:21:29;99685.06;;;24.32;77.04
71299;BME280;59083;47.974;21.722;2022-08-21T12:24:37;99685.25;;;24.35;74.11
71299;BME280;59083;47.974;21.722;2022-08-21T12:27:49;99680.53;;;24.41;73.42
71299;BME280;59083;47.974;21.722;2022-08-21T12:30:51;99664.94;;;24.46;73.53
71299;BME280;59083;47.974;21.722;2022-08-21T12:33:56;99666.19;;;24.54;73.70
71299;BME280;59083;47.974;21.722;2022-08-21T12:37:03;99663.81;;;24.66;73.08
71299;BME280;59083;47.974;21.722;2022-08-21T12:40:41;99660.47;;;24.69;71.88
71299;BME280;59083;47.974;21.722;2022-08-21T12:43:50;99657.56;;;24.79;70.08
71299;BME280;59083;47.974;21.722;2022-08-21T12:46:58;99659.63;;;24.87;70.59
71299;BME280;59083;47.974;21.722;2022-08-21T12:50:11;99651.78;;;24.99;69.40
71299;BME280;59083;47.974;21.722;2022-08-21T12:53:48;99659.50;;;25.11;69.72
71299;BME280;59083;47.974;21.722;2022-08-21T12:57:01;99663.09;;;25.06;67.40
71299;BME280;59083;47.974;21.722;2022-08-21T13:00:06;99664.13;;;25.24;67.19
71299;BME280;59083;47.974;21.722;2022-08-21T13:03:15;99666.19;;;25.32;66.68
71299;BME280;59083;47.974;21.722;2022-08-21T13:06:18;99655.47;;;25.36;66.35
71299;BME280;59083;47.974;21.722;2022-08-21T13:09:27;99658.69;;;25.38;66.18
71299;BME280;59083;47.974;21.722;2022-08-21T13:12:29;99652.63;;;25.55;65.49
71299;BME280;59083;47.974;21.722;2022-08-21T13:15:34;99647.78;;;25.51;64.83
71299;BME280;59083;47.974;21.722;2022-08-21T13:18:51;99641.44;;;25.56;63.88
71299;BME280;59083;47.974;21.722;2022-08-21T13:21:53;99642.34;;;25.51;63.04
71299;BME280;59083;47.974;21.722;2022-08-21T13:24:54;99638.81;;;25.51;62.91
71299;BME280;59083;47.974;21.722;2022-08-21T13:28:08;99630.59;;;25.37;63.10
71299;BME280;59083;47.974;21.722;2022-08-21T13:31:11;99635.16;;;25.42;64.08
71299;BME280;59083;47.974;21.722;2022-08-21T13:34:13;99631.00;;;25.44;62.59
71299;BME280;59083;47.974;21.722;2022-08-21T13:37:15;99621.09;;;25.48;61.91
71299;BME280;59083;47.974;21.722;2022-08-21T13:40:23;99625.56;;;25.58;62.07
71299;BME280;59083;47.974;21.722;2022-08-21T13:43:36;99620.63;;;25.60;61.82
71299;BME280;59083;47.974;21.722;2022-08-21T13:46:37;99622.72;;;25.63;61.74
71299;BME280;59083;47.974;21.722;2022-08-21T13:49:43;99626.06;;;25.60;59.68
71299;BME280;59083;47.974;21.722;2022-08-21T13:52:55;99618.50;;;25.57;59.73
71299;BME280;59083;47.974;21.722;2022-08-21T13:55:57;99624.34;;;25.64;59.42
71299;BME280;59083;47.974;21.722;2022-08-21T13:59:00;99628.19;;;25.63;58.90
71299;BME280;59083;47.974;21.722;2022-08-21T14:02:22;99625.97;;;25.65;59.21
71299;BME280;59083;47.974;21.722;2022-08-21T14:05:29;99630.19;;;25.71;59.10
71299;BME280;59083;47.974;21.722;2022-08-21T14:08:39;99636.66;;;25.75;58.06
71299;BME280;59083;47.974;21.722;2022-08-21T14:11:44;99633.03;;;25.80;58.12
71299;BME280;59083;47.974;21.722;2022-08-21T14:14:45;99634.97;;;25.79;59.65
71299;BME280;59083;47.974;21.722;2022-08-21T14:17:47;99630.59;;;25.78;58.95
71299;BME280;59083;47.974;21.722;2022-08-21T14:20:48;99632.22;;;25.79;59.40
71299;BME280;59083;47.974;21.722;2022-08-21T14:24:03;99634.03;;;25.84;58.94
71299;BME280;59083;47.974;21.722;2022-08-21T14:27:07;99627.94;;;25.87;58.17
71299;BME280;59083;47.974;21.722;2022-08-21T14:30:13;99635.25;;;25.91;58.18
71299;BME280;59083;47.974;21.722;2022-08-21T14:33:29;99626.94;;;25.97;57.93
71299;BME280;59083;47.974;21.722;2022-08-21T14:36:31;99633.00;;;25.93;58.88
71299;BME280;59083;47.974;21.722;2022-08-21T14:39:33;99631.38;;;25.92;58.55
71299;BME280;59083;47.974;21.722;2022-08-21T14:42:34;99638.06;;;25.86;58.00
71299;BME280;59083;47.974;21.722;2022-08-21T14:45:36;99636.53;;;25.80;58.57
71299;BME280;59083;47.974;21.722;2022-08-21T14:48:39;99636.34;;;25.77;58.78
71299;BME280;59083;47.974;21.722;2022-08-21T14:51:40;99636.47;;;25.72;58.81
71299;BME280;59083;47.974;21.722;2022-08-21T14:54:42;99629.09;;;25.72;59.21
71299;BME280;59083;47.974;21.722;2022-08-21T14:57:46;99628.28;;;25.72;59.24
71299;BME280;59083;47.974;21.722;2022-08-21T15:00:50;99635.84;;;25.75;58.44
71299;BME280;59083;47.974;21.722;2022-08-21T15:03:51;99632.00;;;25.76;58.53
71299;BME280;59083;47.974;21.722;2022-08-21T15:06:53;99632.81;;;25.76;58.97
71299;BME280;59083;47.974;21.722;2022-08-21T15:09:54;99630.59;;;25.78;59.33
71299;BME280;59083;47.974;21.722;2022-08-21T15:12:55;99631.72;;;25.77;58.33
71299;BME280;59083;47.974;21.722;2022-08-21T15:15:57;99629.59;;;25.74;58.14
71299;BME280;59083;47.974;21.722;2022-08-21T15:18:59;99628.00;;;25.73;58.49
71299;BME280;59083;47.974;21.722;2022-08-21T15:22:00;99621.00;;;25.67;58.59
71299;BME280;59083;47.974;21.722;2022-08-21T15:25:02;99622.25;;;25.61;58.67
71299;BME280;59083;47.974;21.722;2022-08-21T15:28:03;99617.38;;;25.58;58.49
71299;BME280;59083;47.974;21.722;2022-08-21T15:31:05;99610.59;;;25.56;58.30
71299;BME280;59083;47.974;21.722;2022-08-21T15:34:07;99617.97;;;25.55;58.83
71299;BME280;59083;47.974;21.722;2022-08-21T15:37:08;99608.16;;;25.54;58.50
71299;BME280;59083;47.974;21.722;2022-08-21T15:40:10;99599.47;;;25.52;58.11
71299;BME280;59083;47.974;21.722;2022-08-21T15:43:22;99593.00;;;25.48;59.67
71299;BME280;59083;47.974;21.722;2022-08-21T15:46:23;99596.03;;;25.46;58.57
71299;BME280;59083;47.974;21.722;2022-08-21T15:49:25;99592.59;;;25.41;58.61
71299;BME280;59083;47.974;21.722;2022-08-21T15:52:26;99592.59;;;25.41;58.59
71299;BME280;59083;47.974;21.722;2022-08-21T15:55:27;99590.19;;;25.39;59.01
71299;BME280;59083;47.974;21.722;2022-08-21T15:58:28;99584.53;;;25.36;59.36
71299;BME280;59083;47.974;21.722;2022-08-21T16:01:30;99580.50;;;25.33;59.30
71299;BME280;59083;47.974;21.722;2022-08-21T16:04:32;99588.16;;;25.31;59.44
71299;BME280;59083;47.974;21.722;2022-08-21T16:07:33;99586.34;;;25.27;59.72
71299;BME280;59083;47.974;21.722;2022-08-21T16:10:34;99589.78;;;25.19;59.96
71299;BME280;59083;47.974;21.722;2022-08-21T16:13:41;99591.00;;;25.12;60.51
71299;BME280;59083;47.974;21.722;2022-08-21T16:16:44;99584.53;;;25.08;61.73
71299;BME280;59083;47.974;21.722;2022-08-21T16:19:45;99594.22;;;25.01;62.08
71299;BME280;59083;47.974;21.722;2022-08-21T16:22:47;99585.31;;;24.95;62.86
71299;BME280;59083;47.974;21.722;2022-08-21T16:25:49;99591.97;;;24.89;63.31
71299;BME280;59083;47.974;21.722;2022-08-21T16:28:53;99589.53;;;24.88;64.24
71299;BME280;59083;47.974;21.722;2022-08-21T16:31:55;99598.63;;;24.83;64.37
71299;BME280;59083;47.974;21.722;2022-08-21T16:34:56;99597.59;;;24.79;64.57
71299;BME280;59083;47.974;21.722;2022-08-21T16:37:58;99598.22;;;24.76;65.69
71299;BME280;59083;47.974;21.722;2022-08-21T16:40:59;99598.78;;;24.73;64.98
71299;BME280;59083;47.974;21.722;2022-08-21T16:44:02;99592.31;;;24.69;65.30
71299;BME280;59083;47.974;21.722;2022-08-21T16:47:04;99582.63;;;24.63;66.27
71299;BME280;59083;47.974;21.722;2022-08-21T16:50:06;99590.28;;;24.61;66.08
71299;BME280;59083;47.974;21.722;2022-08-21T16:53:08;99590.91;;;24.58;66.69
71299;BME280;59083;47.974;21.722;2022-08-21T16:56:11;99582.19;;;24.56;67.28